createdAt,value
2018-01-27T00:01:26.200Z,102173.69
2018-01-27T00:03:53.764Z,102178.63
2018-01-27T00:06:21.276Z,102176.80
2018-01-27T00:08:48.890Z,102178.14
2018-01-27T00:11:16.421Z,102178.52
2018-01-27T00:13:50.908Z,102175.41
2018-01-27T00:16:18.431Z,102172.72
2018-01-27T00:18:45.985Z,102170.95
2018-01-27T00:21:13.529Z,102172.28
2018-01-27T00:23:41.053Z,102179.83
2018-01-27T00:26:08.605Z,102180.74
2018-01-27T00:28:36.137Z,102184.28
2018-01-27T00:31:03.698Z,102182.17
2018-01-27T00:33:31.221Z,102182.55
2018-01-27T00:35:58.785Z,102189.66
2018-01-27T00:38:26.528Z,102192.34
2018-01-27T00:40:54.099Z,102195.02
2018-01-27T00:43:21.643Z,102198.58
2018-01-27T00:45:49.170Z,102203.11
2018-01-27T00:48:16.804Z,102200.44
2018-01-27T00:50:44.449Z,102198.22
2018-01-27T00:53:12.144Z,102197.37
2018-01-27T00:55:39.689Z,102204.45
2018-01-27T00:58:07.263Z,102196.91
2018-01-27T01:00:34.824Z,102202.73
2018-01-27T01:03:02.356Z,102208.95
2018-01-27T01:05:29.945Z,102208.05
2018-01-27T01:07:57.492Z,102212.95
2018-01-27T01:10:25.169Z,102214.73
2018-01-27T01:12:52.689Z,102213.00
2018-01-27T01:15:20.280Z,102215.27
2018-01-27T01:17:48.637Z,102214.80
2018-01-27T01:20:16.224Z,102224.16
2018-01-27T01:22:43.750Z,102222.81
2018-01-27T01:25:11.311Z,102226.44
2018-01-27T01:27:38.842Z,102230.91
2018-01-27T01:30:06.465Z,102230.50
2018-01-27T01:32:34.025Z,102232.27
2018-01-27T01:35:01.580Z,102238.94
2018-01-27T01:37:29.112Z,102242.50
2018-01-27T01:39:56.640Z,102237.62
2018-01-27T01:42:29.764Z,102239.83
2018-01-27T01:44:57.323Z,102238.97
2018-01-27T01:47:24.884Z,102243.39
2018-01-27T01:49:52.475Z,102249.21
2018-01-27T01:52:20.001Z,102250.55
2018-01-27T01:54:47.525Z,102251.86
2018-01-27T01:57:15.041Z,102255.41
2018-01-27T01:59:42.553Z,102248.29
2018-01-27T02:02:10.105Z,102252.34
2018-01-27T02:04:37.739Z,102264.80
2018-01-27T02:07:05.260Z,102258.11
2018-01-27T02:09:33.378Z,102263.46
2018-01-27T02:12:00.940Z,102267.02
2018-01-27T02:14:28.466Z,102267.47
2018-01-27T02:16:56.010Z,102269.70
2018-01-27T02:19:23.534Z,102263.46
2018-01-27T02:21:51.067Z,102266.14
2018-01-27T02:24:18.626Z,102265.70
2018-01-27T02:26:46.151Z,102268.31
2018-01-27T02:29:13.680Z,102275.89
2018-01-27T02:31:41.202Z,102277.69
2018-01-27T02:34:08.729Z,102279.02
2018-01-27T02:36:36.256Z,102287.00
2018-01-27T02:39:03.780Z,102286.58
2018-01-27T02:41:31.744Z,102292.36
2018-01-27T02:43:59.274Z,102295.89
2018-01-27T02:46:26.805Z,102300.36
2018-01-27T02:48:54.432Z,102301.27
2018-01-27T02:51:21.974Z,102301.27
2018-01-27T02:53:49.521Z,102299.48
2018-01-27T02:56:17.048Z,102301.26
2018-01-27T02:58:44.625Z,102295.51
2018-01-27T03:01:12.158Z,102303.94
2018-01-27T03:03:39.693Z,102309.27
2018-01-27T03:06:07.232Z,102314.59
2018-01-27T03:08:34.809Z,102313.69
2018-01-27T03:11:02.320Z,102315.92
2018-01-27T03:13:29.928Z,102317.70
2018-01-27T03:15:57.446Z,102321.29
2018-01-27T03:18:24.980Z,102321.27
2018-01-27T03:20:52.606Z,102330.18
2018-01-27T03:23:20.166Z,102335.95
2018-01-27T03:25:47.682Z,102337.27
2018-01-27T03:28:15.241Z,102330.61
2018-01-27T03:30:42.773Z,102338.61
2018-01-27T03:33:10.427Z,102342.19
2018-01-27T03:35:37.961Z,102345.28
2018-01-27T03:38:05.486Z,102349.70
2018-01-27T03:40:33.042Z,102352.39
2018-01-27T03:43:00.572Z,102359.06
2018-01-27T03:45:28.100Z,102362.61
2018-01-27T03:47:55.621Z,102372.81
2018-01-27T03:50:23.146Z,102376.80
2018-01-27T03:52:50.677Z,102372.83
2018-01-27T03:55:18.193Z,102369.69
2018-01-27T03:57:45.726Z,102370.14
2018-01-27T04:00:13.249Z,102373.70
2018-01-27T04:02:40.786Z,102375.92
2018-01-27T04:05:08.307Z,102381.69
2018-01-27T04:07:35.862Z,102388.34
2018-01-27T04:10:03.373Z,102388.81
2018-01-27T04:12:30.884Z,102394.13
2018-01-27T04:14:58.516Z,102392.34
2018-01-27T04:17:26.045Z,102389.22
2018-01-27T04:19:53.564Z,102394.59
2018-01-27T04:22:21.080Z,102394.56
2018-01-27T04:24:48.610Z,102399.44
2018-01-27T04:27:16.137Z,102397.69
2018-01-27T04:29:43.659Z,102400.36
2018-01-27T04:32:11.190Z,102399.94
2018-01-27T04:34:38.713Z,102408.35
2018-01-27T04:37:06.354Z,102410.14
2018-01-27T04:39:33.884Z,102410.56
2018-01-27T04:42:01.413Z,102406.58
2018-01-27T04:44:28.964Z,102408.33
2018-01-27T04:46:56.476Z,102415.91
2018-01-27T04:49:24.033Z,102411.46
2018-01-27T04:51:51.605Z,102415.91
2018-01-27T04:54:19.129Z,102416.35
2018-01-27T04:56:46.660Z,102430.11
2018-01-27T04:59:14.189Z,102430.56
2018-01-27T05:01:41.713Z,102430.56
2018-01-27T05:04:09.241Z,102431.45
2018-01-27T05:06:36.762Z,102431.88
2018-01-27T05:09:04.294Z,102438.98
2018-01-27T05:11:31.817Z,102439.43
2018-01-27T05:13:59.349Z,102438.11
2018-01-27T05:16:26.870Z,102445.66
2018-01-27T05:18:54.400Z,102448.31
2018-01-27T05:21:21.929Z,102449.64
2018-01-27T05:23:49.459Z,102456.73
2018-01-27T05:26:17.438Z,102458.08
2018-01-27T05:28:45.000Z,102463.83
2018-01-27T05:31:12.513Z,102470.04
2018-01-27T05:33:40.035Z,102470.06
2018-01-27T05:36:07.684Z,102476.72
2018-01-27T05:38:35.218Z,102474.52
2018-01-27T05:41:02.769Z,102490.47
2018-01-27T05:43:30.280Z,102493.12
2018-01-27T05:45:57.797Z,102498.43
2018-01-27T05:48:25.350Z,102497.97
2018-01-27T05:50:52.876Z,102502.00
2018-01-27T05:53:20.393Z,102503.81
2018-01-27T05:55:47.970Z,102508.25
2018-01-27T05:58:15.500Z,102506.49
2018-01-27T06:00:43.046Z,102520.24
2018-01-27T06:03:10.575Z,102521.58
2018-01-27T06:05:38.106Z,102522.01
2018-01-27T06:08:05.620Z,102522.44
2018-01-27T06:10:33.167Z,102524.23
2018-01-27T06:13:00.709Z,102530.45
2018-01-27T06:15:28.243Z,102538.42
2018-01-27T06:17:55.775Z,102541.52
2018-01-27T06:20:23.333Z,102541.11
2018-01-27T06:22:50.878Z,102547.34
2018-01-27T06:25:18.402Z,102547.78
2018-01-27T06:27:46.045Z,102542.42
2018-01-27T06:30:13.570Z,102549.52
2018-01-27T06:32:41.089Z,102546.47
2018-01-27T06:35:08.718Z,102546.88
2018-01-27T06:37:36.232Z,102553.10
2018-01-27T06:40:03.753Z,102554.00
2018-01-27T06:42:31.275Z,102561.97
2018-01-27T06:44:58.790Z,102574.36
2018-01-27T06:47:26.315Z,102570.82
2018-01-27T06:49:53.852Z,102581.08
2018-01-27T06:52:21.372Z,102581.97
2018-01-27T06:54:48.892Z,102586.88
2018-01-27T06:57:16.457Z,102588.63
2018-01-27T06:59:43.984Z,102597.52
2018-01-27T07:02:11.573Z,102592.22
2018-01-27T07:04:39.091Z,102603.31
2018-01-27T07:07:06.609Z,102601.08
2018-01-27T07:09:34.122Z,102607.74
2018-01-27T07:12:01.646Z,102609.52
2018-01-27T07:14:29.175Z,102613.47
2018-01-27T07:16:56.696Z,102614.81
2018-01-27T07:19:24.219Z,102614.80
2018-01-27T07:21:51.854Z,102622.83
2018-01-27T07:24:19.373Z,102633.45
2018-01-27T07:26:46.943Z,102634.33
2018-01-27T07:29:14.461Z,102635.24
2018-01-27T07:31:41.988Z,102640.12
2018-01-27T07:34:09.506Z,102634.33
2018-01-27T07:36:37.035Z,102640.15
2018-01-27T07:39:04.552Z,102648.14
2018-01-27T07:41:32.073Z,102653.05
2018-01-27T07:43:59.686Z,102658.81
2018-01-27T07:46:27.214Z,102664.59
2018-01-27T07:48:54.736Z,102666.34
2018-01-27T07:51:22.267Z,102667.26
2018-01-27T07:53:49.821Z,102671.65
2018-01-27T07:56:17.350Z,102678.39
2018-01-27T07:58:44.873Z,102675.72
2018-01-27T08:01:12.489Z,102684.20
2018-01-27T08:03:40.001Z,102679.30
2018-01-27T08:06:07.525Z,102683.31
2018-01-27T08:08:35.050Z,102688.72
2018-01-27T08:11:02.570Z,102686.01
2018-01-27T08:13:30.084Z,102690.07
2018-01-27T08:15:57.618Z,102691.88
2018-01-27T08:18:25.141Z,102686.56
2018-01-27T08:20:52.648Z,102697.27
2018-01-27T08:23:20.229Z,102690.18
2018-01-27T08:25:47.795Z,102699.50
2018-01-27T08:28:15.354Z,102699.07
2018-01-27T08:30:42.874Z,102699.08
2018-01-27T08:33:10.398Z,102695.55
2018-01-27T08:35:37.938Z,102693.29
2018-01-27T08:38:05.464Z,102691.55
2018-01-27T08:40:32.993Z,102689.76
2018-01-27T08:43:01.911Z,102693.34
2018-01-27T08:45:29.494Z,102691.12
2018-01-27T08:47:57.057Z,102695.59
2018-01-27T08:50:24.623Z,102696.02
2018-01-27T08:52:52.180Z,102696.51
2018-01-27T08:55:19.733Z,102702.27
2018-01-27T08:57:47.297Z,102697.41
2018-01-27T10:16:11.827Z,102750.33
2018-01-27T10:18:39.339Z,102742.80
2018-01-27T10:21:06.945Z,102756.13
2018-01-27T10:23:34.469Z,102755.64
2018-01-27T10:26:02.016Z,102755.16
2018-01-27T10:28:29.559Z,102751.20
2018-01-27T10:30:57.185Z,102758.31
2018-01-27T10:33:24.734Z,102762.25
2018-01-27T10:35:52.273Z,102766.74
2018-01-27T10:38:19.790Z,102773.80
2018-01-27T10:40:47.317Z,102764.45
2018-01-27T10:43:14.850Z,102768.53
2018-01-27T10:45:42.393Z,102776.50
2018-01-27T10:48:09.913Z,102774.66
2018-01-27T10:50:37.446Z,102783.59
2018-01-27T10:53:05.018Z,102781.36
2018-01-27T10:55:32.538Z,102779.09
2018-01-27T10:58:00.139Z,102774.28
2018-01-27T11:00:27.660Z,102781.40
2018-01-27T11:02:55.246Z,102780.52
2018-01-27T11:05:22.818Z,102788.91
2018-01-27T11:07:50.509Z,102786.75
2018-01-27T11:10:18.142Z,102787.62
2018-01-27T11:12:45.669Z,102790.74
2018-01-27T11:15:13.191Z,102791.59
2018-01-27T11:17:40.715Z,102788.48
2018-01-27T11:20:08.241Z,102792.93
2018-01-27T11:22:35.782Z,102804.45
2018-01-27T11:25:03.306Z,102798.70
2018-01-27T11:27:30.817Z,102804.42
2018-01-27T11:29:58.426Z,102799.50
2018-01-27T11:32:25.949Z,102790.71
2018-01-27T11:34:53.547Z,102787.14
2018-01-27T11:37:21.070Z,102789.80
2018-01-27T11:39:48.606Z,102799.11
2018-01-27T11:42:16.134Z,102792.89
2018-01-27T11:44:43.660Z,102789.36
2018-01-27T11:47:11.340Z,102791.04
2018-01-27T11:49:38.866Z,102790.25
2018-01-27T11:52:06.392Z,102788.91
2018-01-27T11:54:34.017Z,102788.86
2018-01-27T11:57:01.550Z,102789.31
2018-01-27T11:59:29.070Z,102787.11
2018-01-27T12:01:56.595Z,102784.44
2018-01-27T12:04:24.113Z,102777.81
2018-01-27T12:06:51.673Z,102780.81
2018-01-27T12:09:19.197Z,102775.62
2018-01-27T12:11:46.722Z,102775.14
2018-01-27T12:14:14.244Z,102763.55
2018-01-27T12:16:41.799Z,102763.64
2018-01-27T12:19:09.330Z,102754.72
2018-01-27T12:21:36.859Z,102754.25
2018-01-27T12:24:04.384Z,102750.71
2018-01-27T12:26:31.951Z,102754.25
2018-01-27T12:28:59.486Z,102756.05
2018-01-27T12:31:27.014Z,102755.64
2018-01-27T12:33:54.530Z,102755.14
2018-01-27T12:36:22.063Z,102748.94
2018-01-27T12:38:49.582Z,102749.83
2018-01-27T12:41:17.113Z,102744.53
2018-01-27T12:43:44.653Z,102740.54
2018-01-27T12:46:12.177Z,102732.97
2018-01-27T12:48:39.722Z,102728.57
2018-01-27T12:51:07.244Z,102728.60
2018-01-27T12:53:34.791Z,102730.84
2018-01-27T12:56:02.315Z,102722.86
2018-01-27T12:58:29.847Z,102723.77
2018-01-27T13:00:57.358Z,102723.38
2018-01-27T13:03:24.981Z,102714.89
2018-01-27T13:05:52.510Z,102702.87
2018-01-27T13:08:20.098Z,102702.44
2018-01-27T13:10:47.621Z,102693.98
2018-01-27T13:13:15.224Z,102700.63
2018-01-27T13:15:42.883Z,102701.53
2018-01-27T13:18:10.410Z,102701.08
2018-01-27T13:20:37.942Z,102709.56
2018-01-27T13:23:05.558Z,102717.54
2018-01-27T13:25:33.130Z,102715.31
2018-01-27T13:28:00.650Z,102718.87
2018-01-27T13:30:28.180Z,102718.42
2018-01-27T13:32:55.810Z,102726.00
2018-01-27T13:35:23.360Z,102726.00
2018-01-27T13:37:50.949Z,102729.13
2018-01-27T13:40:18.479Z,102726.44
2018-01-27T13:42:46.051Z,102729.58
2018-01-27T13:45:13.575Z,102715.31
2018-01-27T13:47:41.164Z,102716.19
2018-01-27T13:50:08.690Z,102713.51
2018-01-27T13:52:36.214Z,102725.09
2018-01-27T13:55:03.742Z,102717.98
2018-01-27T13:57:31.274Z,102717.06
2018-01-27T13:59:58.864Z,102720.16
2018-01-27T14:02:26.411Z,102720.16
2018-01-27T14:04:53.945Z,102716.11
2018-01-27T14:07:21.468Z,102717.91
2018-01-27T14:09:48.989Z,102720.98
2018-01-27T14:12:16.559Z,102725.41
2018-01-27T14:14:44.124Z,102730.30
2018-01-27T14:17:11.651Z,102740.08
2018-01-27T14:19:39.176Z,102732.50
2018-01-27T14:22:06.800Z,102735.64
2018-01-27T14:24:34.354Z,102734.28
2018-01-27T14:27:01.877Z,102728.94
2018-01-27T14:29:29.452Z,102717.40
2018-01-27T14:31:56.982Z,102712.52
2018-01-27T14:34:24.570Z,102715.64
2018-01-27T14:36:52.081Z,102721.45
2018-01-27T14:39:19.721Z,102735.70
2018-01-27T14:41:47.245Z,102728.11
2018-01-27T14:44:14.842Z,102735.22
2018-01-27T14:46:42.373Z,102732.99
2018-01-27T14:49:09.924Z,102728.55
2018-01-27T14:51:37.530Z,102731.69
2018-01-27T14:54:05.052Z,102728.13
2018-01-27T14:56:32.577Z,102733.94
2018-01-27T14:59:00.206Z,102734.79
2018-01-27T15:01:27.730Z,102738.39
2018-01-27T15:03:55.329Z,102741.94
2018-01-27T15:06:22.844Z,102746.36
2018-01-27T15:08:50.423Z,102745.45
2018-01-27T15:11:17.937Z,102737.91
2018-01-27T15:13:45.561Z,102738.77
2018-01-27T15:16:13.085Z,102735.69
2018-01-27T15:18:40.608Z,102737.02
2018-01-27T15:21:08.133Z,102733.43
2018-01-27T15:23:35.702Z,102726.32
2018-01-27T15:26:03.226Z,102724.09
2018-01-27T15:28:30.806Z,102720.97
2018-01-27T15:30:58.333Z,102719.15
2018-01-27T15:33:25.860Z,102718.73
2018-01-27T15:35:53.494Z,102723.61
2018-01-27T15:38:21.017Z,102722.73
2018-01-27T15:40:48.554Z,102723.56
2018-01-27T15:43:16.158Z,102728.45
2018-01-27T15:45:43.734Z,102727.58
2018-01-27T15:48:11.259Z,102730.66
2018-01-27T15:50:38.903Z,102731.58
2018-01-27T15:53:06.527Z,102728.45
2018-01-27T15:55:34.045Z,102732.01
2018-01-27T15:58:01.590Z,102734.23
2018-01-27T16:00:29.115Z,102736.45
2018-01-27T16:02:56.648Z,102737.77
2018-01-27T16:05:24.173Z,102737.77
2018-01-27T16:07:51.718Z,102746.65
2018-01-27T16:10:19.313Z,102736.85
2018-01-27T16:12:46.842Z,102732.84
2018-01-27T16:15:14.368Z,102735.98
2018-01-27T16:17:41.910Z,102735.92
2018-01-27T16:20:09.444Z,102731.03
2018-01-27T16:22:37.031Z,102732.84
2018-01-27T16:25:04.570Z,102719.52
2018-01-27T16:27:32.160Z,102719.09
2018-01-27T16:29:59.378Z,102724.85
2018-01-27T16:32:26.964Z,102719.47
2018-01-27T16:34:54.555Z,102720.81
2018-01-27T16:37:22.073Z,102712.87
2018-01-27T16:39:49.638Z,102717.30
2018-01-27T16:42:17.161Z,102722.19
2018-01-27T16:44:44.694Z,102719.95
2018-01-27T16:47:12.218Z,102729.30
2018-01-27T16:49:39.739Z,102727.52
2018-01-27T16:52:07.336Z,102730.16
2018-01-27T16:54:34.907Z,102722.13
2018-01-27T16:57:02.465Z,102720.82
2018-01-27T16:59:29.985Z,102722.59
2018-01-27T17:01:57.585Z,102714.53
2018-01-27T17:04:25.157Z,102718.59
2018-01-27T17:06:52.701Z,102713.26
2018-01-27T17:09:20.221Z,102724.80
2018-01-27T17:11:47.762Z,102729.23
2018-01-27T17:14:15.389Z,102721.24
2018-01-27T17:16:42.922Z,102719.46
2018-01-27T17:19:10.509Z,102703.91
2018-01-27T17:21:38.042Z,102704.34
2018-01-27T17:24:05.613Z,102701.77
2018-01-27T17:26:33.131Z,102700.80
2018-01-27T17:29:00.659Z,102689.66
2018-01-27T17:31:28.192Z,102674.55
2018-01-27T17:33:55.712Z,102667.89
2018-01-27T17:36:23.231Z,102676.80
2018-01-27T17:38:50.759Z,102667.91
2018-01-27T17:41:18.338Z,102659.45
2018-01-27T17:43:45.906Z,102663.42
2018-01-27T17:46:13.442Z,102662.98
2018-01-27T17:48:41.027Z,102656.78
2018-01-27T17:51:08.553Z,102658.09
2018-01-27T17:53:36.076Z,102650.55
2018-01-27T17:56:03.605Z,102658.55
2018-01-27T17:58:31.130Z,102662.52
2018-01-27T18:00:58.649Z,102654.07
2018-01-27T18:03:26.183Z,102652.30
2018-01-27T18:05:53.725Z,102646.09
2018-01-27T18:08:21.273Z,102654.09
2018-01-27T18:10:48.815Z,102652.73
2018-01-27T18:13:16.412Z,102650.52
2018-01-27T18:15:43.928Z,102642.98
2018-01-27T18:18:11.462Z,102644.30
2018-01-27T18:20:39.022Z,102655.39
2018-01-27T18:23:06.560Z,102655.41
2018-01-27T18:25:34.083Z,102642.97
2018-01-27T18:28:01.664Z,102640.77
2018-01-27T18:30:29.205Z,102628.28
2018-01-27T18:32:56.733Z,102621.20
2018-01-27T18:35:24.259Z,102617.63
2018-01-27T18:37:51.815Z,102621.19
2018-01-27T18:40:19.342Z,102620.74
2018-01-27T18:42:46.887Z,102615.38
2018-01-27T18:45:14.488Z,102606.03
2018-01-27T18:47:42.020Z,102602.89
2018-01-27T18:50:09.544Z,102601.56
2018-01-27T18:52:37.078Z,102606.89
2018-01-27T18:55:04.606Z,102593.99
2018-01-27T18:57:32.120Z,102598.39
2018-01-27T18:59:59.860Z,102585.98
2018-01-27T19:02:27.515Z,102585.09
2018-01-27T19:04:55.042Z,102581.55
2018-01-27T19:07:22.630Z,102582.42
2018-01-27T19:09:50.404Z,102583.77
2018-01-27T19:12:17.949Z,102582.42
2018-01-27T19:14:45.726Z,102582.81
2018-01-27T19:17:13.269Z,102588.59
2018-01-27T19:19:40.796Z,102581.05
2018-01-27T19:22:08.320Z,102575.67
2018-01-27T19:24:35.849Z,102561.46
2018-01-27T19:27:03.400Z,102555.25
2018-01-27T19:29:30.917Z,102551.21
2018-01-27T19:31:58.435Z,102556.96
2018-01-27T19:34:25.959Z,102568.94
2018-01-27T19:36:53.554Z,102566.70
2018-01-27T19:39:21.091Z,102557.80
2018-01-27T19:41:48.616Z,102549.81
2018-01-27T19:44:16.141Z,102554.26
2018-01-27T19:46:43.664Z,102548.02
2018-01-27T19:49:11.185Z,102545.77
2018-01-27T19:51:38.710Z,102546.22
2018-01-27T19:54:06.230Z,102542.67
2018-01-27T19:56:33.901Z,102535.52
2018-01-27T19:59:01.431Z,102533.28
2018-01-27T20:01:28.973Z,102524.41
2018-01-27T20:03:56.617Z,102515.51
2018-01-27T20:06:24.144Z,102518.17
2018-01-27T20:08:51.733Z,102522.61
2018-01-27T20:11:19.401Z,102512.77
2018-01-27T20:13:46.962Z,102507.00
2018-01-27T20:16:14.519Z,102497.66
2018-01-27T20:18:42.075Z,102488.77
2018-01-27T20:21:09.600Z,102478.97
2018-01-27T20:23:37.152Z,102476.34
2018-01-27T20:26:04.683Z,102483.41
2018-01-27T20:28:32.200Z,102486.05
2018-01-27T20:30:59.726Z,102490.06
2018-01-27T20:33:27.288Z,102497.13
2018-01-27T20:35:54.810Z,102509.08
2018-01-27T20:38:22.333Z,102516.61
2018-01-27T20:40:49.873Z,102516.61
2018-01-27T20:43:17.399Z,102494.45
2018-01-27T20:45:44.929Z,102487.34
2018-01-27T20:48:12.491Z,102486.44
2018-01-27T20:50:40.021Z,102486.44
2018-01-27T20:53:07.549Z,102465.56
2018-01-27T20:55:35.174Z,102455.40
2018-01-27T20:58:02.705Z,102439.46
2018-01-27T21:00:30.228Z,102430.59
2018-01-27T21:02:57.773Z,102423.92
2018-01-27T21:05:25.372Z,102417.68
2018-01-27T21:07:52.940Z,102411.91
2018-01-27T21:10:20.484Z,102426.16
2018-01-27T21:12:48.008Z,102431.00
2018-01-27T21:15:15.640Z,102426.17
2018-01-27T21:17:43.164Z,102427.04
2018-01-27T21:20:10.693Z,102427.52
2018-01-27T21:22:38.213Z,102424.85
2018-01-27T21:25:05.752Z,102424.41
2018-01-27T21:27:33.296Z,102418.63
2018-01-27T21:30:00.814Z,102416.42
2018-01-27T21:32:28.335Z,102405.36
2018-01-27T21:34:55.877Z,102392.94
2018-01-27T21:37:23.488Z,102384.94
2018-01-27T21:39:51.006Z,102386.72
2018-01-27T21:42:18.520Z,102402.69
2018-01-27T21:44:46.043Z,102404.49
2018-01-27T21:47:13.572Z,102397.38
2018-01-27T21:49:41.097Z,102401.83
2018-01-27T21:52:08.649Z,102391.65
2018-01-27T21:54:36.170Z,102386.32
2018-01-27T21:57:03.792Z,102372.57
2018-01-27T21:59:31.306Z,102364.58
2018-01-27T22:01:58.852Z,102356.17
2018-01-27T22:04:26.369Z,102346.47
2018-01-27T22:06:53.897Z,102347.81
2018-01-27T22:09:21.427Z,102351.38
2018-01-27T22:11:48.948Z,102338.50
2018-01-27T22:14:16.479Z,102326.52
2018-01-27T22:16:44.038Z,102315.00
2018-01-27T22:19:11.565Z,102296.38
2018-01-27T22:21:39.096Z,102299.47
2018-01-27T22:24:06.729Z,102303.48
2018-01-27T22:26:34.284Z,102301.27
2018-01-27T22:29:01.821Z,102300.38
2018-01-27T22:31:29.341Z,102299.05
2018-01-27T22:33:56.890Z,102288.84
2018-01-27T22:36:24.522Z,102268.89
2018-01-27T22:38:52.039Z,102266.22
2018-01-27T22:41:19.604Z,102260.45
2018-01-27T22:43:47.124Z,102258.69
2018-01-27T22:46:14.736Z,102251.58
2018-01-27T22:48:42.251Z,102247.59
2018-01-27T22:51:09.782Z,102251.58
2018-01-27T22:53:37.341Z,102246.69
2018-01-27T22:56:04.940Z,102240.47
2018-01-27T22:58:32.460Z,102228.05
2018-01-27T23:01:05.538Z,102240.94
2018-01-27T23:03:33.106Z,102228.05
2018-01-27T23:06:00.628Z,102234.25
2018-01-27T23:08:28.181Z,102220.52
2018-01-27T23:10:55.705Z,102210.29
2018-01-27T23:13:23.230Z,102209.87
2018-01-27T23:15:53.711Z,102202.32
2018-01-27T23:18:21.274Z,102197.42
2018-01-27T23:20:48.804Z,102199.22
2018-01-27T23:23:16.676Z,102189.00
2018-01-27T23:25:44.377Z,102184.99
2018-01-27T23:28:11.977Z,102175.25
2018-01-27T23:30:39.501Z,102174.36
2018-01-27T23:33:07.043Z,102161.92
2018-01-27T23:35:34.556Z,102152.58
2018-01-27T23:38:02.108Z,102162.79
2018-01-27T23:40:29.681Z,102160.14
2018-01-27T23:42:57.236Z,102161.47
2018-01-27T23:45:24.800Z,102163.23
2018-01-27T23:47:52.325Z,102149.02
2018-01-27T23:50:19.845Z,102150.34
2018-01-27T23:52:47.455Z,102137.47
2018-01-27T23:55:15.043Z,102131.69
2018-01-27T23:57:42.600Z,102129.91
